createdAt,value
2023-02-19T00:01:01.520Z,93.83
2023-02-19T00:03:28.094Z,93.85
2023-02-19T00:05:54.596Z,93.81
2023-02-19T00:08:21.079Z,93.60
2023-02-19T00:10:47.566Z,93.43
2023-02-19T00:13:14.880Z,93.39
2023-02-19T00:15:41.363Z,93.06
2023-02-19T00:18:07.834Z,92.41
2023-02-19T00:20:34.315Z,92.41
2023-02-19T00:23:00.843Z,92.14
2023-02-19T00:25:27.367Z,92.28
2023-02-19T00:27:54.072Z,92.43
2023-02-19T00:30:20.691Z,92.48
2023-02-19T00:32:51.347Z,92.79
2023-02-19T00:35:17.843Z,92.62
2023-02-19T00:37:44.306Z,92.85
2023-02-19T00:40:11.023Z,93.04
2023-02-19T00:42:37.478Z,93.20
2023-02-19T00:45:04.502Z,93.48
2023-02-19T00:47:31.000Z,93.43
2023-02-19T00:49:57.413Z,93.42
2023-02-19T00:52:23.847Z,93.23
2023-02-19T00:54:50.296Z,93.16
2023-02-19T01:01:40.710Z,92.41
2023-02-19T01:04:07.694Z,91.81
2023-02-19T01:06:35.326Z,91.59
2023-02-19T01:09:02.816Z,91.56
2023-02-19T01:11:29.334Z,91.29
2023-02-19T01:14:00.833Z,91.12
2023-02-19T01:16:28.261Z,90.95
2023-02-19T01:18:54.823Z,91.12
2023-02-19T01:21:23.804Z,91.27
2023-02-19T01:23:51.543Z,91.07
2023-02-19T01:26:20.880Z,91.12
2023-02-19T01:28:48.441Z,90.83
2023-02-19T01:31:21.609Z,90.74
2023-02-19T01:33:51.220Z,90.91
2023-02-19T01:36:18.186Z,90.73
2023-02-19T01:38:44.947Z,90.64
2023-02-19T01:41:14.623Z,90.60
2023-02-19T01:44:01.513Z,90.39
2023-02-19T01:46:32.990Z,90.35
2023-02-19T01:49:06.461Z,90.15
2023-02-19T01:51:35.562Z,90.23
2023-02-19T01:54:05.469Z,90.12
2023-02-19T01:56:36.420Z,90.43
2023-02-19T01:59:03.058Z,90.33
2023-02-19T02:01:29.701Z,90.20
2023-02-19T02:03:56.313Z,90.42
2023-02-19T02:06:26.003Z,90.11
2023-02-19T02:09:14.415Z,90.27
2023-02-19T02:11:47.269Z,90.36
2023-02-19T02:14:14.559Z,90.23
2023-02-19T02:17:07.374Z,90.33
2023-02-19T02:20:03.659Z,90.34
2023-02-19T02:22:36.416Z,90.74
2023-02-19T02:25:20.134Z,91.00
2023-02-19T02:28:11.758Z,91.00
2023-02-19T02:30:43.588Z,90.96
2023-02-19T02:33:28.141Z,90.94
2023-02-19T02:35:59.328Z,90.91
2023-02-19T02:38:29.881Z,91.04
2023-02-19T02:40:57.149Z,91.06
2023-02-19T02:43:24.204Z,90.98
2023-02-19T02:45:50.761Z,91.11
2023-02-19T02:48:24.725Z,91.12
2023-02-19T02:51:00.179Z,90.97
2023-02-19T02:53:59.069Z,91.11
2023-02-19T02:56:26.361Z,91.04
2023-02-19T02:58:54.831Z,91.23
2023-02-19T03:01:47.781Z,90.92
2023-02-19T03:04:59.590Z,90.96
2023-02-19T03:07:31.103Z,90.89
2023-02-19T03:10:00.602Z,90.85
2023-02-19T03:12:49.653Z,90.82
2023-02-19T03:15:35.493Z,90.78
2023-02-19T03:18:24.092Z,90.45
2023-02-19T03:20:54.934Z,90.48
2023-02-19T03:23:43.314Z,90.28
2023-02-19T03:26:12.144Z,90.52
2023-02-19T03:29:01.268Z,90.11
2023-02-19T03:31:30.468Z,90.04
2023-02-19T03:34:00.687Z,89.99
2023-02-19T03:36:33.704Z,90.22
2023-02-19T03:39:04.581Z,90.15
2023-02-19T03:41:43.491Z,90.03
2023-02-19T03:44:13.927Z,90.07
2023-02-19T03:47:15.719Z,89.79
2023-02-19T03:50:11.743Z,89.80
2023-02-19T03:52:47.178Z,89.82
2023-02-19T03:55:32.037Z,89.70
2023-02-19T03:58:20.380Z,89.55
2023-02-19T04:01:07.336Z,89.66
2023-02-19T04:03:52.206Z,90.46
2023-02-19T04:06:26.001Z,90.43
2023-02-19T04:08:56.298Z,90.41
2023-02-19T04:11:24.598Z,90.46
2023-02-19T04:13:56.728Z,90.40
2023-02-19T04:16:28.638Z,90.10
2023-02-19T04:19:02.524Z,90.13
2023-02-19T04:21:31.969Z,90.54
2023-02-19T04:24:03.986Z,90.52
2023-02-19T04:26:32.163Z,90.64
2023-02-19T04:28:58.629Z,90.60
2023-02-19T04:31:27.284Z,90.77
2023-02-19T04:33:53.803Z,91.15
2023-02-19T04:36:20.298Z,90.92
2023-02-19T04:38:46.816Z,91.04
2023-02-19T04:41:13.435Z,91.70
2023-02-19T04:43:39.989Z,91.95
2023-02-19T04:46:06.525Z,92.43
2023-02-19T04:48:33.016Z,92.61
2023-02-19T04:50:59.541Z,92.99
2023-02-19T04:53:26.017Z,92.72
2023-02-19T04:55:53.469Z,92.87
2023-02-19T04:58:20.674Z,92.97
2023-02-19T05:00:51.036Z,92.95
2023-02-19T05:03:17.471Z,92.90
2023-02-19T05:05:44.022Z,92.89
2023-02-19T05:08:10.486Z,92.89
2023-02-19T05:10:36.912Z,93.08
2023-02-19T05:13:03.392Z,92.71
2023-02-19T05:15:29.853Z,92.67
2023-02-19T05:17:56.300Z,92.67
2023-02-19T05:20:23.091Z,92.81
2023-02-19T05:22:49.584Z,93.02
2023-02-19T05:25:16.224Z,93.24
2023-02-19T05:27:42.715Z,92.70
2023-02-19T05:30:10.176Z,92.57
2023-02-19T05:32:36.970Z,92.69
2023-02-19T05:35:03.721Z,92.74
2023-02-19T05:37:30.206Z,92.65
2023-02-19T05:39:56.761Z,92.80
2023-02-19T05:42:23.319Z,92.82
2023-02-19T05:44:49.786Z,92.66
2023-02-19T05:47:16.330Z,92.66
2023-02-19T05:49:42.950Z,92.58
2023-02-19T05:52:09.503Z,92.67
2023-02-19T05:54:36.000Z,92.46
2023-02-19T05:57:02.461Z,92.41
2023-02-19T05:59:29.155Z,92.82
2023-02-19T06:01:55.838Z,92.67
2023-02-19T06:04:22.372Z,92.55
2023-02-19T06:06:49.152Z,92.69
2023-02-19T06:09:15.956Z,92.50
2023-02-19T06:11:43.648Z,92.33
2023-02-19T06:14:12.734Z,92.37
2023-02-19T06:16:39.430Z,92.57
2023-02-19T06:19:06.048Z,92.57
2023-02-19T06:21:32.549Z,92.64
2023-02-19T06:23:59.227Z,92.64
2023-02-19T06:26:26.039Z,92.66
2023-02-19T06:28:54.110Z,92.64
2023-02-19T06:31:22.258Z,92.55
2023-02-19T06:33:50.736Z,92.26
2023-02-19T06:36:19.408Z,92.21
2023-02-19T06:38:46.406Z,92.38
2023-02-19T06:41:14.106Z,91.80
2023-02-19T06:43:41.161Z,91.81
2023-02-19T06:46:08.028Z,91.86
2023-02-19T06:48:35.382Z,91.65
2023-02-19T06:51:01.901Z,91.27
2023-02-19T06:53:28.449Z,91.44
2023-02-19T06:56:03.285Z,91.28
2023-02-19T06:58:30.151Z,91.68
2023-02-19T07:00:56.737Z,92.05
2023-02-19T07:03:23.756Z,92.05
2023-02-19T07:05:53.274Z,92.17
2023-02-19T07:08:20.006Z,92.29
2023-02-19T07:10:53.773Z,91.96
2023-02-19T07:13:24.012Z,91.73
2023-02-19T07:15:52.196Z,91.73
2023-02-19T07:18:19.234Z,91.79
2023-02-19T07:20:45.964Z,91.64
2023-02-19T07:23:12.592Z,91.67
2023-02-19T07:25:39.769Z,91.39
2023-02-19T07:28:07.053Z,91.51
2023-02-19T07:33:44.074Z,91.82
2023-02-19T07:38:58.675Z,91.68
2023-02-19T07:41:31.494Z,91.56
2023-02-19T07:43:58.669Z,91.43
2023-02-19T07:46:25.813Z,91.76
2023-02-19T07:51:33.306Z,91.91
2023-02-19T07:54:00.536Z,91.97
2023-02-19T07:56:28.885Z,91.79
2023-02-19T07:58:55.381Z,91.85
2023-02-19T08:01:45.620Z,91.88
2023-02-19T08:04:14.086Z,91.83
2023-02-19T08:06:43.294Z,92.40
2023-02-19T08:09:09.989Z,92.22
2023-02-19T08:11:55.223Z,92.24
2023-02-19T08:14:26.658Z,92.16
2023-02-19T08:16:54.080Z,91.72
2023-02-19T08:19:21.537Z,91.97
2023-02-19T08:21:50.637Z,91.93
2023-02-19T08:24:17.240Z,91.90
2023-02-19T08:26:43.729Z,91.82
2023-02-19T08:29:10.532Z,91.61
2023-02-19T08:31:37.710Z,91.85
2023-02-19T08:34:04.368Z,91.51
2023-02-19T08:36:31.206Z,91.30
2023-02-19T08:38:57.695Z,91.21
2023-02-19T08:41:24.233Z,91.18
2023-02-19T08:43:50.895Z,90.92
2023-02-19T08:46:17.366Z,90.57
2023-02-19T08:48:43.857Z,90.26
2023-02-19T08:51:12.261Z,90.01
2023-02-19T08:53:40.569Z,90.07
2023-02-19T08:56:08.984Z,90.10
2023-02-19T08:58:37.495Z,89.77
2023-02-19T09:01:09.052Z,89.76
2023-02-19T09:03:35.862Z,89.59
2023-02-19T09:06:02.316Z,89.67
2023-02-19T09:08:28.949Z,89.33
2023-02-19T09:11:03.630Z,89.24
2023-02-19T09:13:30.461Z,89.16
2023-02-19T09:15:57.397Z,88.97
2023-02-19T09:18:25.956Z,88.88
2023-02-19T09:20:53.029Z,88.55
2023-02-19T09:23:19.815Z,88.38
2023-02-19T09:25:46.578Z,88.65
2023-02-19T09:28:13.324Z,88.28
2023-02-19T09:30:39.970Z,87.62
2023-02-19T09:33:07.068Z,87.24
2023-02-19T09:35:36.838Z,87.38
2023-02-19T09:38:03.442Z,87.61
2023-02-19T09:40:30.498Z,87.43
2023-02-19T09:42:57.802Z,87.50
2023-02-19T09:45:26.789Z,87.25
2023-02-19T09:47:56.435Z,87.16
2023-02-19T09:50:30.312Z,88.05
2023-02-19T09:53:01.429Z,88.68
2023-02-19T09:55:36.321Z,88.68
2023-02-19T09:58:27.965Z,88.65
2023-02-19T10:00:56.609Z,88.52
2023-02-19T10:03:33.686Z,88.37
2023-02-19T10:06:05.063Z,88.71
2023-02-19T10:08:34.414Z,89.41
2023-02-19T10:11:02.740Z,89.87
2023-02-19T10:13:40.120Z,89.48
2023-02-19T10:16:11.663Z,89.12
2023-02-19T10:18:41.436Z,89.71
2023-02-19T10:21:12.793Z,90.21
2023-02-19T10:23:41.332Z,91.18
2023-02-19T10:26:07.888Z,92.30
2023-02-19T10:28:36.152Z,92.97
2023-02-19T10:31:13.411Z,93.33
2023-02-19T10:34:01.207Z,93.14
2023-02-19T10:36:30.541Z,92.92
2023-02-19T10:38:58.800Z,91.97
2023-02-19T10:41:26.871Z,91.27
2023-02-19T10:44:06.630Z,91.21
2023-02-19T10:46:37.454Z,91.37
2023-02-19T10:49:18.014Z,91.05
2023-02-19T10:51:44.641Z,90.51
2023-02-19T10:54:26.777Z,90.76
2023-02-19T10:56:54.186Z,90.95
2023-02-19T10:59:24.081Z,91.80
2023-02-19T11:01:59.136Z,92.52
2023-02-19T11:04:27.858Z,92.55
2023-02-19T11:06:55.063Z,92.00
2023-02-19T11:09:31.000Z,91.20
2023-02-19T11:12:02.940Z,90.06
2023-02-19T11:14:32.086Z,90.16
2023-02-19T11:17:05.093Z,89.53
2023-02-19T11:19:44.981Z,89.36
2023-02-19T11:22:35.687Z,88.42
2023-02-19T11:25:06.821Z,87.44
2023-02-19T11:27:33.737Z,87.17
2023-02-19T11:30:35.584Z,86.39
2023-02-19T11:33:21.966Z,86.44
2023-02-19T11:36:00.706Z,85.59
2023-02-19T11:38:27.634Z,86.03
2023-02-19T11:41:15.417Z,85.74
2023-02-19T11:44:14.540Z,85.47
2023-02-19T11:46:48.922Z,84.70
2023-02-19T11:49:34.090Z,84.40
2023-02-19T11:52:26.940Z,84.11
2023-02-19T11:55:08.388Z,84.75
2023-02-19T11:57:38.516Z,85.70
2023-02-19T12:00:55.819Z,85.93
2023-02-19T12:03:51.968Z,86.13
2023-02-19T12:06:38.236Z,84.77
2023-02-19T12:09:19.736Z,83.96
2023-02-19T12:11:46.302Z,82.26
2023-02-19T12:14:38.045Z,82.01
2023-02-19T12:17:48.692Z,82.30
2023-02-19T12:20:42.726Z,82.77
2023-02-19T12:23:14.939Z,82.97
2023-02-19T12:25:53.328Z,82.10
2023-02-19T12:28:36.725Z,82.38
2023-02-19T12:31:39.685Z,82.00
2023-02-19T12:34:12.240Z,82.08
2023-02-19T12:36:57.121Z,81.93
2023-02-19T12:39:54.809Z,82.10
2023-02-19T12:42:52.383Z,82.11
2023-02-19T12:45:33.362Z,81.02
2023-02-19T12:48:07.307Z,81.62
2023-02-19T12:50:35.832Z,82.05
2023-02-19T12:53:24.357Z,82.31
2023-02-19T12:55:52.513Z,82.61
2023-02-19T12:58:28.237Z,83.03
2023-02-19T13:00:59.094Z,82.70
2023-02-19T13:03:33.756Z,82.94
2023-02-19T13:06:15.581Z,83.74
2023-02-19T13:09:05.307Z,83.09
2023-02-19T13:11:41.830Z,82.79
2023-02-19T13:14:37.540Z,82.71
2023-02-19T13:17:24.078Z,82.66
2023-02-19T13:19:56.463Z,82.48
2023-02-19T13:23:00.965Z,82.63
2023-02-19T13:25:45.269Z,82.59
2023-02-19T13:28:33.913Z,82.57
2023-02-19T13:31:13.619Z,82.23
2023-02-19T13:34:05.708Z,81.75
2023-02-19T13:36:35.621Z,81.10
2023-02-19T13:39:05.587Z,80.82
2023-02-19T13:41:39.346Z,80.64
2023-02-19T13:44:08.518Z,81.04
2023-02-19T13:46:44.038Z,80.43
2023-02-19T13:49:22.877Z,81.06
2023-02-19T13:51:53.245Z,80.94
2023-02-19T13:54:29.225Z,80.94
2023-02-19T13:57:20.813Z,81.40
2023-02-19T13:59:48.347Z,81.53
2023-02-19T14:02:20.814Z,81.64
2023-02-19T14:05:06.868Z,82.06
2023-02-19T14:07:47.908Z,82.64
2023-02-19T14:10:51.391Z,83.06
2023-02-19T14:13:58.058Z,83.77
2023-02-19T14:16:32.325Z,84.47
2023-02-19T14:18:59.052Z,85.38
2023-02-19T14:21:35.694Z,86.06
2023-02-19T14:24:03.812Z,86.46
2023-02-19T14:26:33.002Z,86.83
2023-02-19T14:29:01.089Z,87.53
2023-02-19T14:31:32.016Z,87.85
2023-02-19T14:34:13.701Z,87.88
2023-02-19T14:36:48.854Z,88.10
2023-02-19T14:39:23.359Z,88.09
2023-02-19T14:41:53.271Z,87.32
2023-02-19T14:44:26.986Z,87.45
2023-02-19T14:47:05.900Z,87.30
2023-02-19T14:49:46.878Z,88.40
2023-02-19T14:52:36.775Z,89.24
2023-02-19T14:55:14.555Z,89.69
2023-02-19T14:57:43.122Z,90.21
2023-02-19T15:00:22.086Z,90.91
2023-02-19T15:02:51.250Z,90.90
2023-02-19T15:05:31.739Z,90.75
2023-02-19T15:08:00.849Z,90.60
2023-02-19T15:10:29.354Z,90.43
2023-02-19T15:12:57.681Z,89.85
2023-02-19T15:15:29.787Z,89.56
2023-02-19T15:17:57.816Z,89.09
2023-02-19T15:20:27.531Z,89.03
2023-02-19T15:22:55.949Z,88.81
2023-02-19T15:25:24.703Z,88.57
2023-02-19T15:27:51.188Z,88.50
2023-02-19T15:30:27.534Z,88.29
2023-02-19T15:32:57.119Z,88.03
2023-02-19T15:35:25.327Z,87.92
2023-02-19T15:37:53.549Z,87.81
2023-02-19T15:40:20.676Z,87.94
2023-02-19T15:42:47.840Z,88.03
2023-02-19T15:45:29.411Z,87.86
2023-02-19T15:48:02.316Z,88.53
2023-02-19T15:50:31.767Z,88.52
2023-02-19T15:53:07.088Z,87.90
2023-02-19T15:55:45.547Z,88.32
2023-02-19T15:58:18.210Z,88.34
2023-02-19T16:00:55.932Z,88.56
2023-02-19T16:03:23.336Z,88.88
2023-02-19T16:06:05.199Z,88.38
2023-02-19T16:08:39.715Z,88.46
2023-02-19T16:11:34.055Z,88.50
2023-02-19T16:14:19.306Z,88.14
2023-02-19T16:16:48.638Z,88.15
2023-02-19T16:19:30.827Z,87.70
2023-02-19T16:21:58.577Z,87.94
2023-02-19T16:24:30.199Z,87.69
2023-02-19T16:26:57.547Z,87.76
2023-02-19T16:29:30.126Z,88.09
2023-02-19T16:31:59.726Z,87.73
2023-02-19T16:34:34.454Z,87.87
2023-02-19T16:37:02.654Z,88.00
2023-02-19T16:39:29.945Z,87.65
2023-02-19T16:42:12.477Z,87.93
2023-02-19T16:44:39.005Z,87.43
2023-02-19T16:47:12.642Z,87.66
2023-02-19T16:49:40.298Z,87.31
2023-02-19T16:52:06.871Z,86.40
2023-02-19T16:54:33.421Z,86.76
2023-02-19T16:56:59.944Z,86.26
2023-02-19T16:59:26.434Z,86.23
2023-02-19T17:01:52.907Z,85.70
2023-02-19T17:04:19.527Z,86.07
2023-02-19T17:06:47.204Z,86.05
2023-02-19T17:09:13.757Z,86.33
2023-02-19T17:11:40.311Z,86.78
2023-02-19T17:14:07.050Z,86.72
2023-02-19T17:16:40.751Z,86.86
2023-02-19T17:19:18.349Z,86.58
2023-02-19T17:21:46.721Z,86.37
2023-02-19T17:24:13.705Z,86.34
2023-02-19T17:26:40.242Z,85.82
2023-02-19T17:29:08.825Z,85.60
2023-02-19T17:31:35.416Z,85.57
2023-02-19T17:34:01.939Z,85.64
2023-02-19T17:36:30.852Z,85.72
2023-02-19T17:38:58.900Z,85.70
2023-02-19T17:41:25.654Z,85.93
2023-02-19T17:43:52.606Z,85.28
2023-02-19T17:46:23.445Z,85.58
2023-02-19T17:48:50.579Z,85.25
2023-02-19T17:51:17.271Z,85.20
2023-02-19T17:53:44.000Z,84.37
2023-02-19T17:56:16.450Z,83.99
2023-02-19T17:58:42.941Z,83.66
2023-02-19T18:01:09.613Z,82.91
2023-02-19T18:03:37.582Z,82.55
2023-02-19T18:06:05.077Z,82.62
2023-02-19T18:08:31.585Z,82.43
2023-02-19T18:10:58.026Z,82.21
2023-02-19T18:13:24.613Z,81.64
2023-02-19T18:15:51.235Z,81.61
2023-02-19T18:18:17.809Z,81.70
2023-02-19T18:20:56.164Z,81.91
2023-02-19T18:23:22.678Z,81.36
2023-02-19T18:25:49.199Z,81.21
2023-02-19T18:28:16.143Z,80.33
2023-02-19T18:30:42.820Z,79.78
2023-02-19T18:33:11.008Z,79.85
2023-02-19T18:35:38.100Z,80.14
2023-02-19T18:38:04.657Z,80.09
2023-02-19T18:40:31.128Z,80.17
2023-02-19T18:42:58.675Z,79.95
2023-02-19T18:45:25.422Z,79.75
2023-02-19T18:47:52.050Z,80.12
2023-02-19T18:50:19.629Z,80.20
2023-02-19T18:52:46.447Z,80.40
2023-02-19T18:58:40.396Z,80.71
2023-02-19T19:01:06.939Z,80.89
2023-02-19T19:03:34.517Z,80.59
2023-02-19T19:06:01.423Z,80.61
2023-02-19T19:08:30.395Z,80.32
2023-02-19T19:10:57.183Z,80.64
2023-02-19T19:13:24.019Z,80.72
2023-02-19T19:15:51.243Z,81.00
2023-02-19T19:18:18.463Z,81.07
2023-02-19T19:20:45.079Z,80.89
2023-02-19T19:23:11.817Z,80.45
2023-02-19T19:25:38.262Z,79.91
2023-02-19T19:28:05.016Z,79.20
2023-02-19T19:30:31.616Z,79.34
2023-02-19T19:32:58.225Z,78.61
2023-02-19T19:35:24.874Z,78.28
2023-02-19T19:37:51.524Z,78.77
2023-02-19T19:40:18.851Z,78.78
2023-02-19T19:42:46.093Z,78.65
2023-02-19T19:45:13.861Z,78.69
2023-02-19T19:47:40.341Z,79.15
2023-02-19T19:50:06.956Z,78.90
2023-02-19T19:52:33.442Z,78.91
2023-02-19T19:54:59.985Z,78.97
2023-02-19T19:57:26.466Z,78.92
2023-02-19T19:59:52.994Z,79.02
2023-02-19T20:02:19.595Z,79.35
2023-02-19T20:04:46.125Z,79.50
2023-02-19T20:07:12.608Z,79.53
2023-02-19T20:09:39.076Z,79.45
2023-02-19T20:12:06.552Z,79.79
2023-02-19T20:14:33.829Z,79.63
2023-02-19T20:17:00.399Z,79.68
2023-02-19T20:19:26.895Z,79.70
2023-02-19T20:21:54.148Z,79.49
2023-02-19T20:24:26.439Z,79.66
2023-02-19T20:26:58.691Z,79.42
2023-02-19T20:29:29.847Z,79.91
2023-02-19T20:31:59.913Z,80.11
2023-02-19T20:34:27.033Z,79.98
2023-02-19T20:36:53.870Z,80.25
2023-02-19T20:39:23.625Z,80.42
2023-02-19T20:41:53.027Z,80.63
2023-02-19T20:44:20.095Z,80.82
2023-02-19T20:46:48.970Z,80.90
2023-02-19T20:49:17.378Z,80.90
2023-02-19T20:51:44.265Z,81.22
2023-02-19T20:54:10.861Z,81.21
2023-02-19T20:56:37.376Z,81.47
2023-02-19T20:59:03.877Z,81.70
2023-02-19T21:01:30.523Z,81.53
2023-02-19T21:03:57.220Z,81.82
2023-02-19T21:06:24.864Z,81.56
2023-02-19T21:08:51.355Z,81.85
2023-02-19T21:11:17.941Z,81.97
2023-02-19T21:13:44.560Z,82.20
2023-02-19T21:16:11.498Z,82.43
2023-02-19T21:18:38.209Z,82.29
2023-02-19T21:21:04.900Z,82.42
2023-02-19T21:23:31.445Z,82.00
2023-02-19T21:25:57.965Z,82.39
2023-02-19T21:28:24.712Z,82.40
2023-02-19T21:30:51.333Z,82.41
2023-02-19T21:33:17.808Z,82.83
2023-02-19T21:35:45.151Z,82.77
2023-02-19T21:38:11.629Z,82.82
2023-02-19T21:40:39.362Z,82.96
2023-02-19T21:43:05.822Z,83.03
2023-02-19T21:45:33.532Z,83.36
2023-02-19T21:48:00.021Z,83.33
2023-02-19T21:50:26.523Z,83.62
2023-02-19T21:52:53.601Z,83.67
2023-02-19T21:55:20.154Z,83.93
2023-02-19T21:57:46.633Z,83.99
2023-02-19T22:00:13.739Z,84.17
2023-02-19T22:02:42.103Z,84.26
2023-02-19T22:05:08.891Z,84.32
2023-02-19T22:07:35.457Z,84.24
2023-02-19T22:10:02.073Z,84.58
2023-02-19T22:12:28.714Z,85.00
2023-02-19T22:14:55.241Z,85.27
2023-02-19T22:17:22.309Z,85.36
2023-02-19T22:19:48.811Z,85.54
2023-02-19T22:22:15.316Z,85.66
2023-02-19T22:24:41.922Z,85.84
2023-02-19T22:27:08.558Z,85.70
2023-02-19T22:29:35.120Z,85.53
2023-02-19T22:32:01.783Z,85.74
2023-02-19T22:34:28.373Z,85.87
2023-02-19T22:36:54.969Z,86.11
2023-02-19T22:39:24.825Z,86.21
2023-02-19T22:41:51.514Z,86.23
2023-02-19T22:44:18.310Z,86.49
2023-02-19T22:46:53.049Z,86.54
2023-02-19T22:49:20.813Z,86.11
2023-02-19T22:51:54.800Z,86.66
2023-02-19T22:54:27.061Z,86.46
2023-02-19T22:56:54.489Z,86.43
2023-02-19T22:59:21.518Z,86.42
2023-02-19T23:01:49.014Z,86.21
2023-02-19T23:04:16.028Z,86.32
2023-02-19T23:06:47.142Z,86.59
2023-02-19T23:09:23.660Z,86.59
2023-02-19T23:11:50.595Z,86.53
2023-02-19T23:14:19.455Z,86.71
2023-02-19T23:16:45.915Z,86.36
2023-02-19T23:19:14.648Z,86.56
2023-02-19T23:21:43.087Z,86.49
2023-02-19T23:24:09.728Z,86.66
2023-02-19T23:26:36.438Z,87.33
2023-02-19T23:29:03.354Z,87.42
2023-02-19T23:31:29.871Z,87.78
2023-02-19T23:33:56.397Z,88.07
2023-02-19T23:36:23.872Z,88.25
2023-02-19T23:38:50.708Z,88.75
2023-02-19T23:41:17.535Z,88.82
2023-02-19T23:43:44.784Z,89.11
2023-02-19T23:46:17.728Z,89.17
2023-02-19T23:48:45.959Z,89.24
2023-02-19T23:51:12.604Z,89.53
2023-02-19T23:53:39.091Z,89.73
2023-02-19T23:56:06.257Z,89.60
2023-02-19T23:58:32.861Z,89.73
